Time;durP1;ratioP1;P1;durP2;ratioP2;P2;SDS_P1;SDS_P2;PMS_P1;PMS_P2;Temp;Humidity;BMP_temperature;BMP_pressure;BME280_temperature;BME280_humidity;BME280_pressure;Samples;Min_cycle;Max_cycle;Signal;HPM_P1;HPM_P2
2023/05/10 00:01:38;;;;;;;5.93;5.50;;;;;;;14.71;56.93;100843.09;5076201;28;20452;-42
2023/05/10 00:04:05;;;;;;;5.90;5.50;;;;;;;14.68;56.84;100842.69;5074868;28;20502;-42
2023/05/10 00:06:35;;;;;;;8.33;6.13;;;;;;;14.69;57.16;100839.81;5073946;28;20474;-41
2023/05/10 00:09:03;;;;;;;6.40;5.80;;;;;;;14.72;56.68;100839.38;5074708;28;20927;-41
2023/05/10 00:11:31;;;;;;;6.57;5.97;;;;;;;14.72;57.22;100850.09;5074902;28;20525;-46
2023/05/10 00:13:58;;;;;;;6.10;5.70;;;;;;;14.72;57.76;100838.53;5075100;28;20433;-43
2023/05/10 00:16:26;;;;;;;6.70;6.20;;;;;;;14.72;57.73;100841.22;5083209;22;20462;-43
2023/05/10 00:18:55;;;;;;;5.90;5.50;;;;;;;14.72;57.25;100842.06;5059167;28;20439;-44
2023/05/10 00:21:23;;;;;;;6.60;6.10;;;;;;;14.68;58.21;100837.31;5071997;28;20788;-42
2023/05/10 00:23:52;;;;;;;5.93;5.43;;;;;;;14.67;57.81;100825.75;5070837;28;20507;-45
2023/05/10 00:26:21;;;;;;;6.60;6.00;;;;;;;14.67;58.18;100831.13;5057879;28;20471;-41
2023/05/10 00:28:49;;;;;;;7.53;6.90;;;;;;;14.68;58.54;100831.97;5031303;28;20436;-41
2023/05/10 00:31:17;;;;;;;5.90;5.50;;;;;;;14.63;58.84;100824.59;5029959;28;20432;-48
2023/05/10 00:33:45;;;;;;;6.27;5.47;;;;;;;14.59;58.97;100820.69;5030208;28;20436;-42
2023/05/10 00:36:12;;;;;;;6.67;5.97;;;;;;;14.58;59.27;100821.72;5028609;28;20471;-38
2023/05/10 00:38:40;;;;;;;6.10;5.60;;;;;;;14.57;59.33;100817.41;5032354;28;20452;-47
2023/05/10 00:41:09;;;;;;;6.53;6.03;;;;;;;14.57;59.20;100814.72;5030587;28;20432;-41
2023/05/10 00:43:37;;;;;;;7.07;6.47;;;;;;;14.56;59.69;100814.94;5030566;28;20918;-40
2023/05/10 00:46:05;;;;;;;6.00;5.50;;;;;;;14.57;59.56;100811.22;5029434;28;20981;-42
2023/05/10 00:48:32;;;;;;;7.30;5.80;;;;;;;14.54;59.82;100807.13;5031451;28;21051;-40
2023/05/10 00:51:01;;;;;;;6.10;5.70;;;;;;;14.54;60.79;100809.81;5031354;28;20840;-42
2023/05/10 00:53:31;;;;;;;6.83;5.10;;;;;;;14.52;60.65;100811.88;5030000;28;20435;-40
2023/05/10 00:55:59;;;;;;;5.93;5.53;;;;;;;14.50;60.68;100808.59;5031518;28;20467;-40
2023/05/10 00:58:30;;;;;;;8.30;6.37;;;;;;;14.52;60.50;100811.03;5030000;28;20452;-40
2023/05/10 01:00:59;;;;;;;6.60;5.90;;;;;;;14.51;60.90;100812.94;5031018;28;20432;-40
2023/05/10 01:03:27;;;;;;;10.57;5.53;;;;;;;14.50;60.97;100811.28;5030298;28;20798;-40
2023/05/10 01:05:55;;;;;;;6.57;6.17;;;;;;;14.45;61.96;100802.25;5030226;28;20456;-44
2023/05/10 01:08:23;;;;;;;7.20;6.60;;;;;;;14.42;61.46;100802.69;5030362;28;20965;-42
2023/05/10 01:10:50;;;;;;;6.70;6.07;;;;;;;14.37;62.50;100800.66;5030599;28;20432;-45
2023/05/10 01:13:29;;;;;;;6.60;6.07;;;;;;;14.32;62.85;100797.78;5030562;28;20536;-43
2023/05/10 01:15:59;;;;;;;7.67;6.20;;;;;;;14.27;63.02;100792.25;5030907;28;20491;-45
2023/05/10 01:18:28;;;;;;;6.57;6.07;;;;;;;14.23;62.92;100788.38;5031308;28;20464;-42
2023/05/10 01:21:15;;;;;;;11.87;6.50;;;;;;;14.15;63.33;100794.84;5031261;28;20421;-42
2023/05/10 01:24:16;;;;;;;8.37;6.57;;;;;;;14.08;63.47;100791.38;5031327;28;20442;-40
2023/05/10 01:27:21;;;;;;;6.20;5.70;;;;;;;13.96;65.37;100789.59;4988943;28;20468;-46
2023/05/10 01:30:06;;;;;;;8.63;6.03;;;;;;;13.91;64.95;100789.44;4999872;28;20516;-43
2023/05/10 01:32:50;;;;;;;12.80;6.70;;;;;;;13.83;65.64;100785.97;5009497;28;20441;-42
2023/05/10 01:35:22;;;;;;;7.03;6.33;;;;;;;13.75;66.87;100788.94;5010231;28;20997;-40
2023/05/10 01:37:59;;;;;;;6.53;6.03;;;;;;;13.65;69.00;100785.09;5010631;28;20451;-41
2023/05/10 01:40:33;;;;;;;6.73;6.23;;;;;;;13.61;68.87;100782.00;5010292;28;20436;-41
2023/05/10 01:43:03;;;;;;;6.73;5.63;;;;;;;13.57;68.43;100790.69;5011007;28;20440;-40
2023/05/10 01:45:34;;;;;;;7.00;6.40;;;;;;;13.49;70.02;100786.41;5010920;28;20449;-40
2023/05/10 01:48:10;;;;;;;8.20;6.30;;;;;;;13.43;71.21;100789.13;5010232;28;20508;-42
2023/05/10 01:50:43;;;;;;;5.50;5.20;;;;;;;13.35;72.18;100784.00;5009302;28;20424;-41
2023/05/10 01:53:12;;;;;;;6.17;5.67;;;;;;;13.28;74.58;100779.50;5009653;28;20483;-40
2023/05/10 01:55:46;;;;;;;11.83;6.00;;;;;;;13.22;73.47;100777.69;5009219;28;20457;-40
2023/05/10 01:58:16;;;;;;;9.83;6.37;;;;;;;13.17;75.18;100782.03;5010582;28;20789;-42
2023/05/10 02:00:46;;;;;;;8.00;7.20;;;;;;;13.12;75.96;100779.16;5011277;28;20429;-42
2023/05/10 02:03:17;;;;;;;6.90;6.40;;;;;;;13.09;76.42;100785.75;5009920;28;20882;-41
2023/05/10 02:05:46;;;;;;;6.80;6.30;;;;;;;13.07;76.19;100778.94;5009272;28;20515;-42
2023/05/10 02:08:16;;;;;;;6.27;5.73;;;;;;;12.97;79.67;100781.22;5010204;28;20484;-41
2023/05/10 02:10:45;;;;;;;6.87;6.37;;;;;;;12.94;80.37;100773.63;5008571;28;20440;-42
2023/05/10 02:13:15;;;;;;;6.50;5.97;;;;;;;12.92;79.52;100778.38;5008349;28;20436;-42
2023/05/10 02:15:44;;;;;;;6.30;6.00;;;;;;;12.92;79.28;100779.19;5009789;28;20460;-45
2023/05/10 02:18:13;;;;;;;6.93;6.33;;;;;;;12.91;79.74;100782.91;5010360;28;20519;-42
2023/05/10 02:20:43;;;;;;;7.37;6.80;;;;;;;12.89;81.01;100787.66;5008966;28;20433;-41
2023/05/10 02:23:12;;;;;;;6.93;6.37;;;;;;;12.89;81.45;100782.31;5009350;28;20439;-40
2023/05/10 02:25:40;;;;;;;6.37;5.57;;;;;;;12.90;81.27;100791.97;5015129;28;20510;-41
2023/05/10 02:28:11;;;;;;;6.77;6.27;;;;;;;12.86;84.73;100787.25;5027238;28;20472;-40
2023/05/10 02:30:39;;;;;;;6.93;6.30;;;;;;;12.84;85.65;100789.31;5029286;28;20453;-40
2023/05/10 02:33:08;;;;;;;6.17;5.87;;;;;;;12.69;91.70;100784.22;5027773;28;20428;-43
2023/05/10 02:35:38;;;;;;;6.63;6.33;;;;;;;12.67;89.34;100792.44;5027813;28;20464;-44
2023/05/10 02:38:09;;;;;;;5.90;5.50;;;;;;;12.62;90.84;100784.22;5030095;28;20448;-44
2023/05/10 02:40:38;;;;;;;7.20;6.67;;;;;;;12.55;90.82;100788.75;5029262;28;20428;-40
2023/05/10 02:43:10;;;;;;;6.90;6.40;;;;;;;12.51;90.42;100784.88;5031674;28;20840;-40
2023/05/10 02:45:39;;;;;;;7.20;6.57;;;;;;;12.45;91.31;100777.66;5031202;28;20822;-40
2023/05/10 02:48:07;;;;;;;7.07;5.40;;;;;;;12.37;92.13;100777.03;5032355;28;20478;-40
2023/05/10 02:50:37;;;;;;;7.50;6.90;;;;;;;12.30;92.93;100782.41;5032514;28;20432;-42
2023/05/10 02:53:11;;;;;;;8.50;6.77;;;;;;;12.23;93.28;100778.06;5031238;28;20424;-40
2023/05/10 02:55:41;;;;;;;6.93;6.53;;;;;;;12.16;93.61;100776.22;5030496;28;20470;-41
2023/05/10 02:58:09;;;;;;;7.83;7.13;;;;;;;12.06;96.37;100765.16;5034613;28;20539;-41
2023/05/10 03:00:37;;;;;;;7.17;6.53;;;;;;;12.01;97.55;100774.78;5031439;28;20438;-42
2023/05/10 03:03:05;;;;;;;7.30;6.80;;;;;;;11.95;97.66;100763.06;5030443;28;20770;-40
2023/05/10 03:05:33;;;;;;;7.93;7.30;;;;;;;11.92;98.39;100768.00;5031490;28;20601;-41
2023/05/10 03:08:03;;;;;;;7.20;6.73;;;;;;;11.86;98.92;100766.13;5030986;28;20479;-40
2023/05/10 03:10:34;;;;;;;9.13;7.17;;;;;;;11.84;99.22;100771.69;5031799;28;20555;-40
2023/05/10 03:13:16;;;;;;;7.10;6.23;;;;;;;11.84;99.81;100760.19;5031741;28;20412;-40
2023/05/10 03:15:56;;;;;;;7.13;6.00;;;;;;;11.86;98.74;100766.13;5031645;28;20996;-40
2023/05/10 03:18:30;;;;;;;7.20;6.50;;;;;;;11.86;99.28;100768.81;5031307;28;20456;-40
2023/05/10 03:21:00;;;;;;;7.33;6.73;;;;;;;11.85;99.24;100761.84;5031033;28;20590;-41
2023/05/10 03:23:35;;;;;;;9.30;6.77;;;;;;;11.83;99.17;100766.53;5031561;28;20439;-43
2023/05/10 03:26:06;;;;;;;7.60;6.90;;;;;;;11.82;98.98;100765.75;5030884;28;20455;-42
2023/05/10 03:28:35;;;;;;;7.40;6.67;;;;;;;11.83;98.32;100767.38;5031781;28;20488;-42
2023/05/10 03:31:05;;;;;;;8.03;7.00;;;;;;;11.78;99.56;100769.00;5032768;28;20934;-43
2023/05/10 03:33:32;;;;;;;7.00;6.60;;;;;;;11.81;99.45;100765.94;5030795;28;20436;-40
2023/05/10 03:36:00;;;;;;;7.50;6.90;;;;;;;11.78;99.79;100769.84;5029751;28;20555;-43
2023/05/10 03:38:28;;;;;;;8.90;6.40;;;;;;;11.77;100.00;100770.06;5031840;28;20875;-40
2023/05/10 03:40:57;;;;;;;7.93;7.00;;;;;;;11.76;100.00;100765.72;5032075;28;20936;-40
2023/05/10 03:43:26;;;;;;;9.00;7.43;;;;;;;11.79;100.00;100765.31;5030712;28;20434;-40
2023/05/10 03:45:54;;;;;;;6.13;5.83;;;;;;;11.80;100.00;100761.63;5029754;28;20543;-40
2023/05/10 03:48:21;;;;;;;7.90;7.30;;;;;;;11.82;100.00;100767.59;5031926;28;20530;-41
2023/05/10 03:50:50;;;;;;;6.77;6.37;;;;;;;11.81;100.00;100765.94;5029795;28;20918;-41
2023/05/10 03:53:18;;;;;;;7.97;6.60;;;;;;;11.85;100.00;100769.84;5029770;28;20992;-40
2023/05/10 03:55:46;;;;;;;6.60;6.00;;;;;;;11.90;100.00;100768.22;5032232;28;20460;-42
2023/05/10 03:58:14;;;;;;;10.60;7.00;;;;;;;11.96;99.52;100766.56;5030957;28;20511;-43
2023/05/10 04:00:44;;;;;;;6.63;6.03;;;;;;;12.05;99.50;100768.00;5030156;28;20440;-42
2023/05/10 04:03:13;;;;;;;7.00;6.57;;;;;;;12.10;99.31;100761.00;5031854;28;21034;-45
2023/05/10 04:05:41;;;;;;;7.00;6.40;;;;;;;12.21;98.61;100762.25;5029996;28;20812;-40
2023/05/10 04:08:08;;;;;;;7.50;6.30;;;;;;;12.25;97.90;100751.94;5029857;28;20483;-40
2023/05/10 04:10:36;;;;;;;7.53;6.80;;;;;;;12.33;97.74;100757.09;5030160;28;20455;-41
2023/05/10 04:13:04;;;;;;;6.93;6.10;;;;;;;12.37;97.47;100759.13;5030328;28;20428;-41
2023/05/10 04:15:31;;;;;;;8.13;6.97;;;;;;;12.44;97.30;100759.97;5029135;28;20985;-41
2023/05/10 04:18:00;;;;;;;6.93;6.43;;;;;;;12.50;95.99;100759.13;5030757;28;20467;-42
2023/05/10 04:20:28;;;;;;;6.67;6.27;;;;;;;12.65;94.90;100756.22;5030680;28;20434;-40
2023/05/10 04:22:56;;;;;;;7.30;6.77;;;;;;;12.73;94.14;100758.66;5029820;28;20440;-41
2023/05/10 04:25:24;;;;;;;7.93;7.23;;;;;;;12.84;93.50;100754.53;5030045;28;20467;-44
2023/05/10 04:27:52;;;;;;;7.63;7.00;;;;;;;13.01;92.06;100745.81;5030472;28;20983;-43
2023/05/10 04:30:20;;;;;;;7.00;6.33;;;;;;;13.16;90.09;100748.25;5029626;28;20432;-40
2023/05/10 04:32:48;;;;;;;6.73;6.13;;;;;;;13.32;89.41;100745.06;5029957;28;20801;-42
2023/05/10 04:35:17;;;;;;;7.13;6.57;;;;;;;13.43;87.50;100747.09;5028773;28;20527;-42
2023/05/10 04:37:45;;;;;;;8.93;6.37;;;;;;;13.57;86.78;100745.97;5029648;28;20973;-46
2023/05/10 04:40:13;;;;;;;6.00;5.50;;;;;;;13.94;86.07;100748.78;5030087;28;20436;-42
2023/05/10 04:42:42;;;;;;;7.27;6.77;;;;;;;14.22;81.00;100751.84;5029460;28;20523;-41
2023/05/10 04:45:10;;;;;;;7.27;6.20;;;;;;;14.54;80.65;100752.63;5028774;28;20837;-43
2023/05/10 04:47:38;;;;;;;7.53;6.83;;;;;;;14.81;78.50;100754.78;5028837;28;20566;-41
2023/05/10 04:50:07;;;;;;;6.60;6.03;;;;;;;14.96;76.81;100746.38;5030093;28;20992;-42
2023/05/10 04:52:36;;;;;;;7.57;7.00;;;;;;;15.02;75.40;100752.72;5030258;28;20447;-41
2023/05/10 04:55:04;;;;;;;7.40;6.90;;;;;;;15.14;74.27;100753.59;5028998;28;20452;-44
2023/05/10 04:57:31;;;;;;;7.60;6.00;;;;;;;15.23;73.48;100749.56;5028666;28;20877;-41
2023/05/10 05:00:01;;;;;;;7.50;6.80;;;;;;;15.17;72.71;100750.44;5029209;28;20439;-41
2023/05/10 05:02:29;;;;;;;7.00;6.50;;;;;;;15.35;71.18;100753.13;5028660;28;20436;-41
2023/05/10 05:04:58;;;;;;;6.70;6.07;;;;;;;15.79;71.54;100744.63;5028914;28;20464;-40
2023/05/10 05:07:26;;;;;;;8.40;7.53;;;;;;;16.07;70.33;100743.97;5030485;28;20445;-42
2023/05/10 05:09:55;;;;;;;7.60;7.00;;;;;;;16.23;66.16;100740.59;5028999;28;21001;-42
2023/05/10 05:12:22;;;;;;;7.47;7.03;;;;;;;16.28;66.45;100743.41;5030437;28;20438;-45
2023/05/10 05:14:50;;;;;;;7.63;6.70;;;;;;;16.61;67.01;100748.22;5030159;28;20968;-42
2023/05/10 05:17:18;;;;;;;7.17;6.70;;;;;;;17.29;65.80;100745.63;5029463;28;20880;-40
2023/05/10 05:19:46;;;;;;;7.47;6.67;;;;;;;17.97;61.06;100750.09;5028772;28;20444;-41
2023/05/10 05:22:14;;;;;;;7.57;6.87;;;;;;;18.76;60.86;100749.69;5030414;28;20431;-40
2023/05/10 05:24:44;;;;;;;8.20;6.70;;;;;;;19.03;55.76;100751.63;5028933;28;20455;-42
2023/05/10 05:27:13;;;;;;;6.70;6.30;;;;;;;19.65;54.45;100744.78;5029615;28;20498;-40
2023/05/10 05:29:41;;;;;;;6.60;6.10;;;;;;;20.17;54.75;100749.56;5028645;28;20478;-44
2023/05/10 05:32:09;;;;;;;7.40;6.80;;;;;;;20.26;51.04;100740.75;5027834;28;20961;-41
2023/05/10 05:34:36;;;;;;;7.30;6.47;;;;;;;20.77;49.57;100739.16;5028033;28;20497;-43
2023/05/10 05:37:04;;;;;;;6.90;6.40;;;;;;;20.72;49.72;100738.31;5020412;28;20779;-45
2023/05/10 05:39:31;;;;;;;7.60;6.77;;;;;;;21.11;48.16;100747.75;5028546;28;20929;-42
2023/05/10 05:41:59;;;;;;;6.80;6.30;;;;;;;21.46;46.92;100738.88;5029124;28;20953;-41
2023/05/10 05:44:28;;;;;;;7.77;7.17;;;;;;;21.36;47.35;100752.41;5029830;28;20442;-41
2023/05/10 05:46:56;;;;;;;6.70;6.30;;;;;;;22.16;46.68;100748.22;5029075;28;20830;-41
2023/05/10 05:49:24;;;;;;;7.70;6.70;;;;;;;22.27;43.90;100750.63;5029947;28;20471;-44
2023/05/10 05:51:51;;;;;;;7.07;6.67;;;;;;;22.17;44.78;100749.81;5028643;28;20845;-42
2023/05/10 05:54:19;;;;;;;7.07;6.40;;;;;;;22.35;46.03;100752.78;5029713;28;20473;-40
2023/05/10 05:56:47;;;;;;;8.23;6.60;;;;;;;22.59;43.60;100740.25;5028837;28;20462;-40
2023/05/10 05:59:14;;;;;;;9.73;6.63;;;;;;;21.92;43.47;100737.88;5029607;28;20519;-43
2023/05/10 06:01:43;;;;;;;8.13;7.33;;;;;;;22.79;44.40;100746.75;5027507;28;20442;-46
2023/05/10 06:04:11;;;;;;;7.70;6.03;;;;;;;23.75;41.46;100746.25;5028220;28;20465;-41
2023/05/10 06:06:39;;;;;;;5.50;5.20;;;;;;;24.55;41.86;100740.13;5027498;28;20463;-41
2023/05/10 06:09:06;;;;;;;6.47;6.00;;;;;;;24.53;39.36;100742.31;5029274;28;20470;-41
2023/05/10 06:11:34;;;;;;;5.93;5.63;;;;;;;24.89;38.55;100725.59;5028186;28;20937;-41
2023/05/10 06:14:03;;;;;;;6.70;6.30;;;;;;;25.27;38.47;100736.25;5029199;28;20796;-41
2023/05/10 06:16:31;;;;;;;6.43;6.00;;;;;;;25.24;37.24;100733.31;5030882;28;20455;-42
2023/05/10 06:19:00;;;;;;;6.63;6.20;;;;;;;25.58;37.29;100733.94;5036270;28;20435;-44
2023/05/10 06:21:28;;;;;;;6.23;5.73;;;;;;;25.62;36.50;100734.97;5039403;28;20438;-41
2023/05/10 06:23:55;;;;;;;7.67;7.00;;;;;;;25.38;36.35;100747.06;5038454;28;20431;-42
2023/05/10 06:26:23;;;;;;;8.27;5.80;;;;;;;24.76;36.95;100743.41;5037358;28;20455;-42
2023/05/10 06:28:51;;;;;;;6.50;6.10;;;;;;;25.09;38.45;100736.25;5039662;28;20436;-40
2023/05/10 06:31:19;;;;;;;7.07;6.53;;;;;;;24.93;36.96;100741.09;5040339;28;20542;-40
2023/05/10 06:33:46;;;;;;;6.97;6.27;;;;;;;24.90;37.19;100738.94;5039056;28;20495;-40
2023/05/10 06:36:15;;;;;;;6.70;6.20;;;;;;;24.15;38.30;100741.34;5036683;28;21021;-42
2023/05/10 06:38:43;;;;;;;7.10;6.50;;;;;;;24.32;37.55;100738.19;5038136;28;20525;-42
2023/05/10 06:41:11;;;;;;;6.90;6.40;;;;;;;23.94;38.86;100744.50;5038975;28;20438;-40
2023/05/10 06:43:41;;;;;;;7.20;6.50;;;;;;;23.81;38.61;100750.56;5039614;28;20936;-40
2023/05/10 06:46:08;;;;;;;6.27;5.97;;;;;;;23.59;39.11;100751.03;5012490;28;20608;-42
2023/05/10 06:48:36;;;;;;;7.20;6.60;;;;;;;23.90;38.48;100737.97;5038229;28;20455;-44
2023/05/10 06:51:04;;;;;;;6.20;5.70;;;;;;;24.23;38.90;100742.63;5037745;28;20471;-41
2023/05/10 06:53:33;;;;;;;7.57;7.07;;;;;;;24.32;38.56;100751.81;5038014;28;20493;-40
2023/05/10 06:56:02;;;;;;;7.60;6.83;;;;;;;24.07;38.37;100752.03;5037288;28;20463;-40
2023/05/10 06:58:32;;;;;;;7.60;7.00;;;;;;;24.39;39.64;100757.75;5037734;28;20454;-40
2023/05/10 07:01:03;;;;;;;6.97;6.40;;;;;;;24.29;38.85;100741.47;5037683;28;20466;-41
2023/05/10 07:03:30;;;;;;;6.00;5.60;;;;;;;24.61;38.77;100744.41;5037368;28;20460;-43
2023/05/10 07:06:02;;;;;;;6.80;6.40;;;;;;;25.26;38.13;100751.03;5038037;28;20487;-44
2023/05/10 07:08:31;;;;;;;6.60;6.30;;;;;;;25.46;38.65;100755.38;5038048;28;20804;-42
2023/05/10 07:11:05;;;;;;;7.00;6.50;;;;;;;25.62;36.94;100753.28;5037187;28;20475;-43
2023/05/10 07:13:33;;;;;;;7.13;6.47;;;;;;;25.73;38.01;100752.84;5037214;28;20455;-42
2023/05/10 07:16:01;;;;;;;7.80;7.20;;;;;;;25.49;38.17;100752.09;5039244;28;20992;-40
2023/05/10 07:18:29;;;;;;;7.13;6.73;;;;;;;25.48;37.37;100755.94;5037044;28;20467;-45
2023/05/10 07:20:58;;;;;;;8.03;7.50;;;;;;;24.85;36.06;100758.06;5036998;28;20864;-42
2023/05/10 07:23:25;;;;;;;7.43;6.93;;;;;;;24.82;37.55;100757.88;5037138;28;20501;-40
2023/05/10 07:25:54;;;;;;;8.70;7.63;;;;;;;24.36;37.73;100758.31;5036150;28;20475;-45
2023/05/10 07:28:23;;;;;;;6.93;6.33;;;;;;;24.74;37.94;100753.81;5036596;28;20444;-43
2023/05/10 07:30:51;;;;;;;6.60;6.20;;;;;;;24.16;38.18;100755.78;5037152;28;20476;-40
2023/05/10 07:33:19;;;;;;;7.20;6.80;;;;;;;24.04;38.53;100758.03;5036442;28;20443;-43
2023/05/10 07:35:47;;;;;;;7.73;7.00;;;;;;;24.25;38.65;100756.78;5038865;28;20464;-42
2023/05/10 07:38:14;;;;;;;7.33;6.63;;;;;;;24.18;39.37;100759.03;5037190;28;20466;-43
2023/05/10 07:40:42;;;;;;;7.10;6.50;;;;;;;24.51;38.15;100752.72;5036581;28;20427;-43
2023/05/10 07:43:10;;;;;;;6.77;6.37;;;;;;;24.44;38.14;100748.69;5037191;28;20427;-44
2023/05/10 07:45:38;;;;;;;6.83;6.37;;;;;;;24.37;38.59;100754.47;5040105;28;20465;-43
2023/05/10 07:48:07;;;;;;;7.47;7.07;;;;;;;24.39;38.94;100754.19;5029996;28;20471;-42
2023/05/10 07:50:34;;;;;;;7.43;6.80;;;;;;;24.03;38.50;100748.22;5036850;28;20471;-45
2023/05/10 07:53:02;;;;;;;8.00;7.37;;;;;;;23.90;38.81;100740.69;5036511;28;20551;-42
2023/05/10 07:55:30;;;;;;;6.93;6.47;;;;;;;23.32;39.80;100756.03;5038298;28;20517;-46
2023/05/10 07:57:57;;;;;;;7.97;7.33;;;;;;;22.58;40.00;100754.91;5036629;28;20872;-41
2023/05/10 08:00:25;;;;;;;8.23;7.20;;;;;;;22.57;40.95;100757.94;5037018;28;20427;-42
2023/05/10 08:02:54;;;;;;;8.43;7.73;;;;;;;22.32;41.03;100756.06;5036475;28;20514;-45
2023/05/10 08:05:22;;;;;;;7.50;6.90;;;;;;;21.88;42.53;100757.69;5035963;28;20424;-44
2023/05/10 08:07:50;;;;;;;7.17;6.67;;;;;;;22.20;42.42;100760.13;5032377;28;20479;-41
2023/05/10 08:10:18;;;;;;;7.40;6.90;;;;;;;22.27;42.89;100760.69;5037770;28;20467;-40
2023/05/10 08:12:46;;;;;;;7.70;7.23;;;;;;;22.66;42.90;100764.47;5037110;28;20427;-43
2023/05/10 08:15:13;;;;;;;8.87;8.07;;;;;;;22.57;42.49;100760.63;5037274;28;20439;-44
2023/05/10 08:17:41;;;;;;;10.10;7.60;;;;;;;23.02;42.52;100765.97;5031722;28;20467;-42
2023/05/10 08:20:12;;;;;;;7.83;7.20;;;;;;;23.44;40.87;100776.44;5038039;28;20836;-40
2023/05/10 08:22:40;;;;;;;7.97;7.47;;;;;;;23.52;41.31;100764.94;5037098;28;20439;-44
2023/05/10 08:25:08;;;;;;;7.30;6.60;;;;;;;23.84;41.39;100769.88;5036371;28;20442;-47
2023/05/10 08:27:36;;;;;;;7.50;6.90;;;;;;;24.13;40.18;100773.50;5035670;28;20463;-39
2023/05/10 08:30:04;;;;;;;7.80;7.30;;;;;;;24.09;39.91;100783.31;5036069;28;20440;-42
2023/05/10 08:32:32;;;;;;;7.67;6.97;;;;;;;23.88;39.53;100778.31;5035755;28;20436;-46
2023/05/10 08:35:00;;;;;;;8.20;7.60;;;;;;;23.94;39.89;100772.53;5038300;28;20503;-38
2023/05/10 08:37:32;;;;;;;8.27;7.70;;;;;;;23.47;40.29;100783.22;5035459;28;20479;-41
2023/05/10 08:40:00;;;;;;;8.23;7.60;;;;;;;23.36;40.19;100782.41;5035689;28;20851;-41
2023/05/10 08:42:31;;;;;;;8.10;7.47;;;;;;;23.55;41.30;100780.72;5035141;28;20434;-44
2023/05/10 08:45:00;;;;;;;8.30;7.60;;;;;;;23.54;41.43;100779.06;5037101;28;20467;-38
2023/05/10 08:47:28;;;;;;;8.97;8.07;;;;;;;23.56;41.24;100784.25;5033907;28;20479;-40
2023/05/10 08:49:59;;;;;;;7.87;7.27;;;;;;;23.42;41.52;100781.31;5036256;28;20458;-40
2023/05/10 08:52:29;;;;;;;8.20;7.70;;;;;;;23.43;41.43;100785.69;5036669;28;20427;-38
2023/05/10 08:54:59;;;;;;;8.30;7.60;;;;;;;23.15;41.53;100784.41;5037180;28;20436;-41
2023/05/10 08:57:27;;;;;;;8.93;8.03;;;;;;;23.24;41.35;100784.63;5035519;28;20490;-40
2023/05/10 08:59:54;;;;;;;8.70;8.00;;;;;;;23.30;41.85;100786.25;5035323;28;20432;-42
2023/05/10 09:02:24;;;;;;;8.33;7.60;;;;;;;23.19;42.45;100787.38;5036200;28;20447;-38
2023/05/10 09:04:51;;;;;;;10.10;7.60;;;;;;;23.21;41.89;100789.84;5035796;28;20427;-40
2023/05/10 09:07:21;;;;;;;8.40;7.70;;;;;;;22.89;42.22;100791.03;5036450;28;20472;-40
2023/05/10 09:09:49;;;;;;;8.50;7.90;;;;;;;22.98;42.96;100791.28;5036832;28;20535;-43
2023/05/10 09:12:18;;;;;;;9.20;8.40;;;;;;;23.32;42.79;100797.69;5037241;28;20475;-39
2023/05/10 09:14:47;;;;;;;8.90;8.23;;;;;;;23.63;42.12;100798.34;5037841;28;20424;-39
2023/05/10 09:17:14;;;;;;;8.27;7.57;;;;;;;23.57;42.00;100808.44;5037065;28;20483;-39
2023/05/10 09:19:42;;;;;;;8.73;8.13;;;;;;;22.95;42.20;100810.88;5037985;28;20428;-43
2023/05/10 09:22:10;;;;;;;8.70;8.10;;;;;;;22.84;43.05;100804.66;5038178;28;20482;-44
2023/05/10 09:24:42;;;;;;;9.10;8.50;;;;;;;22.81;42.51;100807.94;5037657;28;20441;-38
2023/05/10 09:27:09;;;;;;;8.43;7.83;;;;;;;22.99;42.59;100809.22;5037794;28;20483;-43
2023/05/10 09:29:43;;;;;;;8.80;7.93;;;;;;;23.11;43.45;100807.84;5017775;28;20523;-39
2023/05/10 09:32:10;;;;;;;8.87;8.20;;;;;;;22.86;43.24;100807.09;5016980;28;20901;-40
2023/05/10 09:34:41;;;;;;;8.63;7.83;;;;;;;22.71;43.86;100805.22;5018510;28;20490;-41
2023/05/10 09:37:08;;;;;;;9.23;8.43;;;;;;;22.85;43.34;100798.09;5016351;28;20491;-41
2023/05/10 09:39:38;;;;;;;8.23;7.67;;;;;;;22.96;43.65;100809.78;5017603;28;20520;-40
2023/05/10 09:42:07;;;;;;;7.90;7.40;;;;;;;22.77;43.73;100812.28;5017802;28;20432;-41
2023/05/10 09:44:35;;;;;;;9.10;8.47;;;;;;;22.23;44.40;100800.34;5017988;28;20432;-41
2023/05/10 09:47:05;;;;;;;8.20;7.70;;;;;;;22.12;45.22;100812.28;5015747;28;20455;-43
2023/05/10 09:49:33;;;;;;;8.83;8.13;;;;;;;21.98;45.34;100822.88;5016900;28;20810;-40
2023/05/10 09:52:02;;;;;;;8.77;8.10;;;;;;;21.62;46.11;100813.00;5016821;28;20507;-39
2023/05/10 09:54:29;;;;;;;9.13;8.50;;;;;;;21.58;46.44;100811.91;5018141;28;20440;-41
2023/05/10 09:56:57;;;;;;;8.70;7.80;;;;;;;21.33;47.00;100815.34;5017597;28;20462;-41
2023/05/10 09:59:26;;;;;;;8.43;7.67;;;;;;;21.02;47.99;100814.38;5017619;28;21244;-38
2023/05/10 10:01:57;;;;;;;9.80;8.87;;;;;;;21.09;47.97;100817.69;5015945;28;20479;-40
2023/05/10 10:04:27;;;;;;;8.77;8.17;;;;;;;21.04;48.12;100824.94;5016306;28;20433;-39
2023/05/10 10:07:03;;;;;;;8.93;8.03;;;;;;;20.68;48.76;100823.91;5014819;28;21108;-43
2023/05/10 10:09:32;;;;;;;13.30;8.50;;;;;;;20.74;48.99;100822.88;5016850;28;20454;-43
2023/05/10 10:12:00;;;;;;;9.03;7.53;;;;;;;20.66;48.55;100832.31;5015514;28;20555;-40
2023/05/10 10:14:28;;;;;;;8.57;7.87;;;;;;;20.80;49.11;100822.66;5017547;28;20441;-41
2023/05/10 10:16:56;;;;;;;8.57;7.63;;;;;;;20.63;48.75;100838.25;5017266;28;21041;-41
2023/05/10 10:19:36;;;;;;;8.80;7.80;;;;;;;20.40;48.98;100831.31;5017874;28;20447;-40
2023/05/10 10:22:05;;;;;;;9.27;8.57;;;;;;;20.32;49.29;100837.19;5017074;28;20416;-40
2023/05/10 10:24:33;;;;;;;9.07;8.27;;;;;;;20.27;49.67;100839.06;5017482;28;20417;-40
2023/05/10 10:27:09;;;;;;;9.67;8.77;;;;;;;20.40;49.59;100833.19;5033070;28;20452;-41
2023/05/10 10:29:43;;;;;;;7.87;7.27;;;;;;;20.43;49.94;100838.91;5015093;28;21107;-42
2023/05/10 10:32:20;;;;;;;10.03;8.60;;;;;;;20.45;49.86;100840.56;5016227;28;20981;-43
2023/05/10 10:34:50;;;;;;;9.87;8.97;;;;;;;20.54;49.93;100841.72;5017243;28;20881;-40
2023/05/10 10:37:17;;;;;;;9.30;8.50;;;;;;;20.57;50.31;100839.31;5015719;28;20459;-39
2023/05/10 10:39:45;;;;;;;8.90;8.20;;;;;;;20.67;50.03;100842.06;5013739;28;20440;-42
2023/05/10 10:42:13;;;;;;;8.83;8.03;;;;;;;20.53;50.78;100840.06;5015313;28;20447;-46
2023/05/10 10:44:41;;;;;;;8.53;7.67;;;;;;;20.63;50.53;100840.97;5016343;28;20440;-42
2023/05/10 10:47:28;;;;;;;9.87;8.50;;;;;;;20.86;50.60;100848.72;5013814;28;20456;-45
2023/05/10 10:50:09;;;;;;;8.77;8.20;;;;;;;20.98;50.33;100849.31;5015017;28;20436;-39
2023/05/10 10:52:38;;;;;;;12.27;8.70;;;;;;;21.20;50.08;100846.50;5014008;28;20483;-39
2023/05/10 10:55:08;;;;;;;9.17;8.30;;;;;;;21.30;49.24;100846.53;5016103;28;20531;-46
2023/05/10 10:57:46;;;;;;;11.23;7.57;;;;;;;21.32;48.62;100843.56;5016363;28;20486;-39
2023/05/10 11:00:30;;;;;;;8.33;7.63;;;;;;;21.46;49.01;100839.28;5016895;28;20515;-41
2023/05/10 11:02:59;;;;;;;8.30;7.80;;;;;;;21.16;49.01;100839.13;5019484;28;20440;-40
2023/05/10 11:05:46;;;;;;;8.50;7.80;;;;;;;21.03;49.96;100848.53;5020648;28;20516;-43
2023/05/10 11:08:19;;;;;;;8.40;7.70;;;;;;;20.87;50.22;100844.94;5019427;28;20559;-40
2023/05/10 11:11:06;;;;;;;8.30;7.70;;;;;;;20.94;49.97;100845.50;5021433;28;20443;-43
2023/05/10 11:13:38;;;;;;;9.20;8.40;;;;;;;21.02;49.99;100841.50;5020115;28;20534;-46
2023/05/10 11:16:17;;;;;;;9.37;8.47;;;;;;;21.02;50.20;100846.91;5019907;28;20459;-41
2023/05/10 11:19:05;;;;;;;9.17;8.23;;;;;;;20.94;50.13;100847.38;5019694;28;20551;-45
2023/05/10 11:21:35;;;;;;;9.00;8.30;;;;;;;21.20;49.77;100842.97;5019443;28;20421;-42
2023/05/10 11:24:05;;;;;;;8.47;7.60;;;;;;;21.32;49.50;100849.00;5019568;28;20523;-43
2023/05/10 11:26:36;;;;;;;7.37;6.87;;;;;;;21.17;48.47;100852.44;5032734;28;20436;-40
2023/05/10 11:29:04;;;;;;;8.20;7.70;;;;;;;20.90;49.98;100849.81;5038881;28;20481;-40
2023/05/10 11:31:32;;;;;;;9.17;8.57;;;;;;;20.95;49.68;100854.44;5039336;28;20428;-42
2023/05/10 11:34:02;;;;;;;9.30;8.53;;;;;;;21.05;50.27;100848.28;5037871;28;20431;-41
2023/05/10 11:36:37;;;;;;;9.13;7.90;;;;;;;21.27;50.35;100855.19;5039883;28;20431;-43